createdAt,value
2018-07-13T00:00:35.136Z,1014.33
2018-07-13T00:01:35.092Z,1014.31
2018-07-13T00:02:35.053Z,1014.34
2018-07-13T00:03:35.044Z,1014.35
2018-07-13T00:04:34.979Z,1014.37
2018-07-13T00:05:34.949Z,1014.36
2018-07-13T00:06:34.910Z,1014.38
2018-07-13T00:07:34.876Z,1014.35
2018-07-13T00:08:34.834Z,1014.36
2018-07-13T00:09:34.812Z,1014.35
2018-07-13T00:10:34.757Z,1014.34
2018-07-13T00:11:34.761Z,1014.31
2018-07-13T00:12:34.679Z,1014.33
2018-07-13T00:13:34.649Z,1014.36
2018-07-13T00:14:34.631Z,1014.37
2018-07-13T00:15:34.577Z,1014.35
2018-07-13T00:16:34.525Z,1014.34
2018-07-13T00:17:34.498Z,1014.36
2018-07-13T00:18:34.462Z,1014.32
2018-07-13T00:19:34.447Z,1014.34
2018-07-13T00:20:34.388Z,1014.35
2018-07-13T00:21:34.340Z,1014.38
2018-07-13T00:22:34.300Z,1014.37
2018-07-13T00:23:34.262Z,1014.36
2018-07-13T00:24:34.231Z,1014.42
2018-07-13T00:25:34.222Z,1014.43
2018-07-13T00:26:34.161Z,1014.43
2018-07-13T00:27:34.126Z,1014.45
2018-07-13T00:28:34.094Z,1014.44
2018-07-13T00:29:34.044Z,1014.43
2018-07-13T00:30:34.035Z,1014.42
2018-07-13T00:31:33.976Z,1014.45
2018-07-13T00:32:33.936Z,1014.52
2018-07-13T00:33:33.887Z,1014.42
2018-07-13T00:34:33.847Z,1014.43
2018-07-13T00:35:33.830Z,1014.45
2018-07-13T00:36:33.776Z,1014.46
2018-07-13T00:37:33.741Z,1014.46
2018-07-13T00:38:33.705Z,1014.43
2018-07-13T00:39:33.671Z,1014.44
2018-07-13T00:40:33.630Z,1014.47
2018-07-13T00:41:33.607Z,1014.43
2018-07-13T00:42:33.548Z,1014.42
2018-07-13T00:43:33.511Z,1014.41
2018-07-13T00:44:33.474Z,1014.42
2018-07-13T00:45:33.440Z,1014.42
2018-07-13T00:46:33.426Z,1014.43
2018-07-13T00:47:33.358Z,1014.43
2018-07-13T00:48:33.323Z,1014.42
2018-07-13T00:49:33.291Z,1014.40
2018-07-13T00:50:33.254Z,1014.43
2018-07-13T00:51:33.236Z,1014.46
2018-07-13T00:52:33.181Z,1014.45
2018-07-13T00:53:33.134Z,1014.45
2018-07-13T00:54:33.096Z,1014.46
2018-07-13T00:55:33.062Z,1014.47
2018-07-13T00:56:33.051Z,1014.50
2018-07-13T00:57:32.982Z,1014.46
2018-07-13T00:58:32.944Z,1014.45
2018-07-13T00:59:32.908Z,1014.49
2018-07-13T01:00:32.869Z,1014.44
2018-07-13T01:01:32.841Z,1014.49
2018-07-13T01:02:32.820Z,1014.47
2018-07-13T01:03:32.755Z,1014.50
2018-07-13T01:04:32.717Z,1014.50
2018-07-13T01:05:32.683Z,1014.52
2018-07-13T01:06:32.653Z,1014.43
2018-07-13T01:07:32.632Z,1014.48
2018-07-13T01:08:32.572Z,1014.47
2018-07-13T01:09:32.527Z,1014.47
2018-07-13T01:10:32.488Z,1014.49
2018-07-13T01:11:32.454Z,1014.48
2018-07-13T01:12:32.444Z,1014.46
2018-07-13T01:13:32.385Z,1014.49
2018-07-13T01:14:32.351Z,1014.50
2018-07-13T01:15:32.309Z,1014.47
2018-07-13T01:16:32.273Z,1014.46
2018-07-13T01:17:32.223Z,1014.47
2018-07-13T01:18:32.210Z,1014.49
2018-07-13T01:19:32.158Z,1014.50
2018-07-13T01:20:32.118Z,1014.52
2018-07-13T01:21:32.074Z,1014.52
2018-07-13T01:22:32.046Z,1014.53
2018-07-13T01:23:32.021Z,1014.48
2018-07-13T01:24:31.960Z,1014.53
2018-07-13T01:25:31.931Z,1014.52
2018-07-13T01:26:31.892Z,1014.53
2018-07-13T01:27:31.856Z,1014.52
2018-07-13T01:28:31.837Z,1014.55
2018-07-13T01:29:31.769Z,1014.53
2018-07-13T01:30:31.735Z,1014.51
2018-07-13T01:31:31.696Z,1014.53
2018-07-13T01:32:31.655Z,1014.52
2018-07-13T01:33:31.655Z,1014.54
2018-07-13T01:34:31.590Z,1014.56
2018-07-13T01:35:31.544Z,1014.57
2018-07-13T01:36:31.505Z,1014.53
2018-07-13T01:37:31.471Z,1014.54
2018-07-13T01:38:31.436Z,1014.54
2018-07-13T01:39:31.418Z,1014.52
2018-07-13T01:40:31.361Z,1014.55
2018-07-13T01:41:31.315Z,1014.53
2018-07-13T01:42:31.275Z,1014.56
2018-07-13T01:43:31.241Z,1014.55
2018-07-13T01:44:31.222Z,1014.57
2018-07-13T01:45:31.173Z,1014.57
2018-07-13T01:46:31.130Z,1014.58
2018-07-13T01:47:31.094Z,1014.55
2018-07-13T01:48:31.056Z,1014.55
2018-07-13T01:49:31.035Z,1014.54
2018-07-13T01:50:30.973Z,1014.60
2018-07-13T01:51:30.944Z,1014.57
2018-07-13T01:52:30.902Z,1014.58
2018-07-13T01:53:30.859Z,1014.57
2018-07-13T01:54:30.820Z,1014.61
2018-07-13T01:55:30.856Z,1014.58
2018-07-13T01:56:30.744Z,1014.62
2018-07-13T01:57:30.713Z,1014.65
2018-07-13T01:58:30.677Z,1014.64
2018-07-13T01:59:30.638Z,1014.66
2018-07-13T02:00:30.620Z,1014.64
2018-07-13T02:01:30.551Z,1014.66
2018-07-13T02:02:30.517Z,1014.63
2018-07-13T02:03:30.474Z,1014.68
2018-07-13T02:04:30.438Z,1014.64
2018-07-13T02:05:30.431Z,1014.66
2018-07-13T02:06:30.389Z,1014.65
2018-07-13T02:07:30.323Z,1014.61
2018-07-13T02:08:30.286Z,1014.61
2018-07-13T02:09:30.257Z,1014.65
2018-07-13T02:10:30.214Z,1014.65
2018-07-13T02:11:30.199Z,1014.63
2018-07-13T02:12:30.139Z,1014.64
2018-07-13T02:13:30.109Z,1014.64
2018-07-13T02:14:30.055Z,1014.64
2018-07-13T02:15:30.019Z,1014.63
2018-07-13T02:16:30.001Z,1014.63
2018-07-13T02:17:29.952Z,1014.66
2018-07-13T02:18:29.909Z,1014.63
2018-07-13T02:19:29.873Z,1014.60
2018-07-13T02:20:29.834Z,1014.62
2018-07-13T02:21:29.807Z,1014.62
2018-07-13T02:22:29.756Z,1014.62
2018-07-13T02:23:29.719Z,1014.57
2018-07-13T02:24:29.683Z,1014.60
2018-07-13T02:25:29.636Z,1014.59
2018-07-13T02:26:29.624Z,1014.58
2018-07-13T02:27:29.557Z,1014.59
2018-07-13T02:28:29.520Z,1014.57
2018-07-13T02:29:29.488Z,1014.61
2018-07-13T02:30:29.453Z,1014.60
2018-07-13T02:31:29.411Z,1014.61
2018-07-13T02:32:29.403Z,1014.64
2018-07-13T02:33:29.326Z,1014.63
2018-07-13T02:34:29.287Z,1014.65
2018-07-13T02:35:29.252Z,1014.67
2018-07-13T02:36:29.214Z,1014.68
2018-07-13T02:37:29.211Z,1014.67
2018-07-13T02:38:29.141Z,1014.65
2018-07-13T02:39:29.099Z,1014.71
2018-07-13T02:40:29.062Z,1014.72
2018-07-13T02:41:29.033Z,1014.72
2018-07-13T02:42:29.014Z,1014.71
2018-07-13T02:43:28.949Z,1014.74
2018-07-13T02:44:28.915Z,1014.71
2018-07-13T02:45:28.865Z,1014.74
2018-07-13T02:46:28.830Z,1014.72
2018-07-13T02:47:28.789Z,1014.71
2018-07-13T02:48:28.784Z,1014.72
2018-07-13T02:49:28.717Z,1014.74
2018-07-13T02:50:28.681Z,1014.73
2018-07-13T02:51:28.644Z,1014.70
2018-07-13T02:52:28.608Z,1014.76
2018-07-13T02:53:28.582Z,1014.74
2018-07-13T02:54:28.519Z,1014.76
2018-07-13T02:55:28.492Z,1014.77
2018-07-13T02:56:28.455Z,1014.76
2018-07-13T02:57:28.428Z,1014.74
2018-07-13T02:58:28.369Z,1014.75
2018-07-13T02:59:28.331Z,1014.77
2018-07-13T03:00:28.291Z,1014.78
2018-07-13T03:01:28.261Z,1014.81
2018-07-13T03:02:28.244Z,1014.82
2018-07-13T03:03:28.183Z,1014.81
2018-07-13T03:04:28.141Z,1014.80
2018-07-13T03:05:28.098Z,1014.80
2018-07-13T03:06:28.058Z,1014.79
2018-07-13T03:07:28.044Z,1014.81
2018-07-13T03:08:27.985Z,1014.81
2018-07-13T03:09:27.949Z,1014.80
2018-07-13T03:10:27.918Z,1014.81
2018-07-13T03:11:27.864Z,1014.80
2018-07-13T03:12:27.854Z,1014.83
2018-07-13T03:13:27.796Z,1014.84
2018-07-13T03:14:27.758Z,1014.84
2018-07-13T03:15:27.718Z,1014.88
2018-07-13T03:16:27.686Z,1014.85
2018-07-13T03:17:27.656Z,1014.90
2018-07-13T03:18:27.598Z,1014.89
2018-07-13T03:19:27.555Z,1014.86
2018-07-13T03:20:27.518Z,1014.91
2018-07-13T03:21:27.485Z,1014.91
2018-07-13T03:22:27.473Z,1014.92
2018-07-13T03:23:27.409Z,1014.94
2018-07-13T03:24:27.376Z,1014.95
2018-07-13T03:25:27.326Z,1014.97
2018-07-13T03:26:27.287Z,1014.90
2018-07-13T03:27:27.277Z,1014.94
2018-07-13T03:28:27.215Z,1014.94
2018-07-13T03:29:27.170Z,1014.97
2018-07-13T03:30:27.133Z,1014.97
2018-07-13T03:31:27.098Z,1015.01
2018-07-13T03:32:27.081Z,1015.01
2018-07-13T03:33:27.022Z,1015.02
2018-07-13T03:34:26.985Z,1015.02
2018-07-13T03:35:26.944Z,1015.01
2018-07-13T03:36:26.928Z,1015.04
2018-07-13T03:37:26.861Z,1015.03
2018-07-13T03:38:26.845Z,1015.07
2018-07-13T03:39:26.786Z,1015.06
2018-07-13T03:40:26.745Z,1015.09
2018-07-13T03:41:26.736Z,1015.10
2018-07-13T03:42:26.677Z,1015.10
2018-07-13T03:43:26.629Z,1015.06
2018-07-13T03:44:26.592Z,1015.06
2018-07-13T03:45:26.558Z,1015.10
2018-07-13T03:46:26.542Z,1015.08
2018-07-13T03:47:26.479Z,1015.08
2018-07-13T03:48:26.473Z,1015.12
2018-07-13T03:49:26.428Z,1015.11
2018-07-13T03:50:26.358Z,1015.15
2018-07-13T03:51:26.343Z,1015.14
2018-07-13T03:52:26.283Z,1015.14
2018-07-13T03:53:26.248Z,1015.12
2018-07-13T03:54:26.208Z,1015.14
2018-07-13T03:55:26.175Z,1015.16
2018-07-13T03:56:26.154Z,1015.18
2018-07-13T03:57:26.086Z,1015.17
2018-07-13T03:58:26.046Z,1015.18
2018-07-13T03:59:26.019Z,1015.16
2018-07-13T04:00:26.003Z,1015.16
2018-07-13T04:01:25.955Z,1015.19
2018-07-13T04:02:25.895Z,1015.17
2018-07-13T04:03:25.856Z,1015.19
2018-07-13T04:04:25.816Z,1015.16
2018-07-13T04:05:25.785Z,1015.14
2018-07-13T04:06:25.790Z,1015.13
2018-07-13T04:07:25.709Z,1015.10
2018-07-13T04:08:25.672Z,1015.11
2018-07-13T04:09:25.622Z,1015.12
2018-07-13T04:10:25.583Z,1015.10
2018-07-13T04:11:25.570Z,1015.12
2018-07-13T04:12:25.507Z,1015.09
2018-07-13T04:13:25.473Z,1015.10
2018-07-13T04:14:25.440Z,1015.11
2018-07-13T04:15:25.394Z,1015.11
2018-07-13T04:16:25.374Z,1015.05
2018-07-13T04:17:25.322Z,1015.09
2018-07-13T04:18:25.281Z,1015.09
2018-07-13T04:19:25.245Z,1015.09
2018-07-13T04:20:25.228Z,1015.10
2018-07-13T04:21:25.158Z,1015.11
2018-07-13T04:22:25.121Z,1015.12
2018-07-13T04:23:25.084Z,1015.12
2018-07-13T04:24:25.044Z,1015.12
2018-07-13T04:25:25.036Z,1015.10
2018-07-13T04:26:24.978Z,1015.11
2018-07-13T04:27:24.937Z,1015.09
2018-07-13T04:28:24.900Z,1015.12
2018-07-13T04:29:24.852Z,1015.08
2018-07-13T04:30:24.835Z,1015.12
2018-07-13T04:31:24.782Z,1015.13
2018-07-13T04:32:24.746Z,1015.09
2018-07-13T04:33:24.698Z,1015.11
2018-07-13T04:34:24.660Z,1015.13
2018-07-13T04:35:24.642Z,1015.12
2018-07-13T04:36:24.585Z,1015.12
2018-07-13T04:37:24.551Z,1015.11
2018-07-13T04:38:24.513Z,1015.10
2018-07-13T04:39:24.478Z,1015.11
2018-07-13T04:40:24.460Z,1015.10
2018-07-13T04:41:24.390Z,1015.13
2018-07-13T04:42:24.351Z,1015.15
2018-07-13T04:43:24.314Z,1015.15
2018-07-13T04:44:24.278Z,1015.21
2018-07-13T04:45:24.265Z,1015.22
2018-07-13T04:46:24.208Z,1015.24
2018-07-13T04:47:24.162Z,1015.26
2018-07-13T04:48:24.128Z,1015.28
2018-07-13T04:49:24.091Z,1015.30
2018-07-13T04:50:24.074Z,1015.35
2018-07-13T04:51:24.017Z,1015.36
2018-07-13T04:52:23.976Z,1015.34
2018-07-13T04:53:23.933Z,1015.36
2018-07-13T04:54:23.897Z,1015.36
2018-07-13T04:55:23.882Z,1015.38
2018-07-13T04:56:23.822Z,1015.42
2018-07-13T04:57:23.791Z,1015.43
2018-07-13T04:58:23.756Z,1015.41
2018-07-13T04:59:23.719Z,1015.46
2018-07-13T05:00:23.702Z,1015.50
2018-07-13T05:01:23.639Z,1015.47
2018-07-13T05:02:23.600Z,1015.46
2018-07-13T05:03:23.570Z,1015.48
2018-07-13T05:04:23.537Z,1015.45
2018-07-13T05:05:23.514Z,1015.47
2018-07-13T05:06:23.458Z,1015.49
2018-07-13T05:07:23.421Z,1015.53
2018-07-13T05:08:23.384Z,1015.51
2018-07-13T05:09:23.384Z,1015.44
2018-07-13T05:10:23.320Z,1015.47
2018-07-13T05:11:23.284Z,1015.47
2018-07-13T05:12:23.249Z,1015.48
2018-07-13T05:13:23.209Z,1015.49
2018-07-13T05:14:23.195Z,1015.54
2018-07-13T05:15:23.139Z,1015.54
2018-07-13T05:16:23.103Z,1015.58
2018-07-13T05:17:23.076Z,1015.58
2018-07-13T05:18:23.041Z,1015.53
2018-07-13T05:19:23.022Z,1015.58
2018-07-13T05:20:22.963Z,1015.62
2018-07-13T05:21:22.981Z,1015.63
2018-07-13T05:22:22.900Z,1015.62
2018-07-13T05:23:22.869Z,1015.65
2018-07-13T05:24:22.854Z,1015.69
2018-07-13T05:25:22.792Z,1015.72
2018-07-13T05:26:22.759Z,1015.70
2018-07-13T05:27:22.721Z,1015.74
2018-07-13T05:28:22.690Z,1015.71
2018-07-13T05:29:22.695Z,1015.70
2018-07-13T05:30:22.628Z,1015.73
2018-07-13T05:31:22.600Z,1015.70
2018-07-13T05:32:22.561Z,1015.72
2018-07-13T05:33:22.523Z,1015.69
2018-07-13T05:34:22.488Z,1015.69
2018-07-13T05:35:22.483Z,1015.69
2018-07-13T05:36:22.429Z,1015.69
2018-07-13T05:37:22.392Z,1015.72
2018-07-13T05:38:22.387Z,1015.72
2018-07-13T05:39:22.321Z,1015.78
2018-07-13T05:40:22.315Z,1015.81
2018-07-13T05:41:22.263Z,1015.80
2018-07-13T05:42:22.235Z,1015.78
2018-07-13T05:43:22.195Z,1015.81
2018-07-13T05:44:22.164Z,1015.84
2018-07-13T05:45:22.120Z,1015.80
2018-07-13T05:46:22.113Z,1015.80
2018-07-13T05:47:22.056Z,1015.86
2018-07-13T05:48:22.025Z,1015.88
2018-07-13T05:49:21.997Z,1015.87
2018-07-13T05:50:21.964Z,1015.88
2018-07-13T05:51:21.943Z,1015.93
2018-07-13T05:52:21.891Z,1015.97
2018-07-13T05:53:21.865Z,1015.97
2018-07-13T05:54:21.832Z,1015.96
2018-07-13T05:55:21.799Z,1015.98
2018-07-13T05:56:21.789Z,1016.01
2018-07-13T05:57:21.726Z,1016.03
2018-07-13T05:58:21.695Z,1016.06
2018-07-13T05:59:21.664Z,1016.05
2018-07-13T06:00:21.631Z,1016.03
2018-07-13T06:01:21.625Z,1016.05
2018-07-13T06:02:21.571Z,1016.04
2018-07-13T06:03:21.539Z,1016.04
2018-07-13T06:04:21.509Z,1016.07
2018-07-13T06:05:21.472Z,1016.11
2018-07-13T06:06:21.464Z,1016.08
2018-07-13T06:07:21.414Z,1016.09
2018-07-13T06:08:21.382Z,1016.08
2018-07-13T06:09:21.338Z,1016.14
2018-07-13T06:10:21.310Z,1016.12
2018-07-13T06:11:21.279Z,1016.13
2018-07-13T06:12:21.269Z,1016.08
2018-07-13T06:13:21.219Z,1016.16
2018-07-13T06:14:21.188Z,1016.12
2018-07-13T06:15:21.156Z,1016.14
2018-07-13T06:16:21.124Z,1016.16
2018-07-13T06:17:21.110Z,1016.18
2018-07-13T06:18:21.055Z,1016.22
2018-07-13T06:19:21.020Z,1016.26
2018-07-13T06:20:21.000Z,1016.30
2018-07-13T06:21:20.965Z,1016.37
2018-07-13T06:22:20.932Z,1016.43
2018-07-13T06:23:20.916Z,1016.47
2018-07-13T06:24:20.936Z,1016.41
2018-07-13T06:25:20.841Z,1016.43
2018-07-13T06:26:20.808Z,1016.50
2018-07-13T06:27:20.777Z,1016.57
2018-07-13T06:28:20.764Z,1016.51
2018-07-13T06:29:20.708Z,1016.45
2018-07-13T06:30:20.712Z,1016.54
2018-07-13T06:31:20.723Z,1016.50
2018-07-13T06:32:20.615Z,1016.51
2018-07-13T06:33:20.610Z,1016.49
2018-07-13T06:34:20.558Z,1016.47
2018-07-13T06:35:20.528Z,1016.50
2018-07-13T06:36:20.493Z,1016.48
2018-07-13T06:37:20.478Z,1016.49
2018-07-13T06:38:20.425Z,1016.49
2018-07-13T06:39:20.401Z,1016.50
2018-07-13T06:40:20.371Z,1016.55
2018-07-13T06:41:20.330Z,1016.50
2018-07-13T06:42:20.323Z,1016.49
2018-07-13T06:43:20.273Z,1016.52
2018-07-13T06:44:20.240Z,1016.55
2018-07-13T06:45:20.215Z,1016.58
2018-07-13T06:46:20.183Z,1016.62
2018-07-13T06:47:20.172Z,1016.66
2018-07-13T06:48:20.118Z,1016.75
2018-07-13T06:49:20.084Z,1016.82
2018-07-13T06:50:20.102Z,1016.85
2018-07-13T06:51:20.020Z,1016.90
2018-07-13T06:52:20.015Z,1016.93
2018-07-13T06:53:19.967Z,1016.97
2018-07-13T06:54:19.940Z,1016.94
2018-07-13T06:55:19.894Z,1016.89
2018-07-13T06:56:19.864Z,1017.02
2018-07-13T06:57:19.865Z,1017.15
2018-07-13T06:58:19.808Z,1017.13
2018-07-13T06:59:19.780Z,1017.17
2018-07-13T07:00:19.750Z,1017.24
2018-07-13T07:01:19.709Z,1017.30
2018-07-13T07:02:19.682Z,1017.32
2018-07-13T07:03:19.674Z,1017.33
2018-07-13T07:04:19.618Z,1017.36
2018-07-13T07:05:19.593Z,1017.35
2018-07-13T07:06:19.565Z,1017.33
2018-07-13T07:07:19.542Z,1017.32
2018-07-13T07:08:19.530Z,1017.28
2018-07-13T07:09:19.468Z,1017.19
2018-07-13T07:10:19.435Z,1017.13
2018-07-13T07:11:19.416Z,1017.12
2018-07-13T07:12:19.385Z,1017.11
2018-07-13T07:13:19.342Z,1017.09
2018-07-13T07:14:19.337Z,1017.02
2018-07-13T07:15:19.287Z,1016.99
2018-07-13T07:16:19.256Z,1016.86
2018-07-13T07:17:19.233Z,1016.82
2018-07-13T07:18:19.203Z,1016.79
2018-07-13T07:19:19.198Z,1016.74
2018-07-13T07:20:19.142Z,1016.75
2018-07-13T07:21:19.101Z,1016.74
2018-07-13T07:22:19.074Z,1016.76
2018-07-13T07:23:19.043Z,1016.66
2018-07-13T07:24:19.016Z,1016.57
2018-07-13T07:25:19.014Z,1016.67
2018-07-13T07:26:18.956Z,1016.65
2018-07-13T07:27:18.920Z,1016.68
2018-07-13T07:28:18.893Z,1016.64
2018-07-13T07:29:18.870Z,1016.63
2018-07-13T07:30:18.857Z,1016.61
2018-07-13T07:31:18.807Z,1016.58
2018-07-13T07:32:18.780Z,1016.60
2018-07-13T07:33:18.740Z,1016.56
2018-07-13T07:34:18.710Z,1016.55
2018-07-13T07:35:18.709Z,1016.56
2018-07-13T07:36:18.671Z,1016.55
2018-07-13T07:37:18.630Z,1016.51
2018-07-13T07:38:18.611Z,1016.49
2018-07-13T07:39:18.567Z,1016.51
2018-07-13T07:40:18.539Z,1016.48
2018-07-13T07:41:18.538Z,1016.46
2018-07-13T07:42:18.475Z,1016.48
2018-07-13T07:43:18.454Z,1016.47
2018-07-13T07:44:18.422Z,1016.47
2018-07-13T07:45:18.385Z,1016.47
2018-07-13T07:46:18.376Z,1016.49
2018-07-13T07:47:18.327Z,1016.47
2018-07-13T07:48:18.299Z,1016.42
2018-07-13T07:49:18.276Z,1016.41
2018-07-13T07:50:18.243Z,1016.44
2018-07-13T07:51:18.244Z,1016.49
2018-07-13T07:52:18.189Z,1016.43
2018-07-13T07:53:18.149Z,1016.42
2018-07-13T07:54:18.122Z,1016.48
2018-07-13T07:55:18.094Z,1016.45
2018-07-13T07:56:18.064Z,1016.40
2018-07-13T07:57:18.064Z,1016.41
2018-07-13T07:58:18.016Z,1016.43
2018-07-13T07:59:17.983Z,1016.42
2018-07-13T08:00:17.951Z,1016.47
2018-07-13T08:01:17.927Z,1016.40
2018-07-13T08:02:17.914Z,1016.44
2018-07-13T08:03:17.873Z,1016.30
2018-07-13T08:04:17.840Z,1016.50
2018-07-13T08:05:17.801Z,1016.28
2018-07-13T08:06:17.830Z,1016.31
2018-07-13T08:07:17.997Z,1016.39
2018-07-13T08:08:17.721Z,1016.40
2018-07-13T08:09:17.704Z,1016.52
2018-07-13T08:10:17.672Z,1016.52
2018-07-13T08:11:17.639Z,1016.52
2018-07-13T08:12:17.634Z,1016.48
2018-07-13T08:13:17.587Z,1016.46
2018-07-13T08:14:17.581Z,1016.53
2018-07-13T08:15:17.537Z,1016.50
2018-07-13T08:16:17.507Z,1016.53
2018-07-13T08:17:17.471Z,1016.52
2018-07-13T08:18:17.474Z,1016.53
2018-07-13T08:19:17.407Z,1016.53
2018-07-13T08:20:17.381Z,1016.50
2018-07-13T08:21:17.358Z,1016.52
2018-07-13T08:22:17.325Z,1016.50
2018-07-13T08:23:17.322Z,1016.45
2018-07-13T08:24:17.277Z,1016.29
2018-07-13T08:25:17.242Z,1016.28
2018-07-13T08:26:17.210Z,1016.25
2018-07-13T08:27:17.189Z,1016.30
2018-07-13T08:28:17.197Z,1016.33
2018-07-13T08:29:17.136Z,1016.30
2018-07-13T08:30:17.108Z,1016.36
2018-07-13T08:31:17.075Z,1016.30
2018-07-13T08:32:17.051Z,1016.34
2018-07-13T08:33:17.026Z,1016.36
2018-07-13T08:34:17.015Z,1016.34
2018-07-13T08:35:16.971Z,1016.35
2018-07-13T08:36:16.936Z,1016.40
2018-07-13T08:37:16.898Z,1016.36
2018-07-13T08:38:16.874Z,1016.34
2018-07-13T08:39:16.868Z,1016.38
2018-07-13T08:40:16.817Z,1016.39
2018-07-13T08:41:16.802Z,1016.36
2018-07-13T08:42:16.774Z,1016.31
2018-07-13T08:43:16.742Z,1016.54
2018-07-13T08:44:16.716Z,1016.56
2018-07-13T08:45:16.702Z,1016.43
2018-07-13T08:46:16.650Z,1016.58
2018-07-13T08:47:16.634Z,1016.58
2018-07-13T08:48:16.609Z,1016.58
2018-07-13T08:49:16.567Z,1016.53
2018-07-13T08:50:16.565Z,1016.56
2018-07-13T08:51:16.557Z,1016.57
2018-07-13T08:52:16.484Z,1016.57
2018-07-13T08:53:16.463Z,1016.57
2018-07-13T08:54:16.440Z,1016.55
2018-07-13T08:55:16.444Z,1016.54
2018-07-13T08:56:16.442Z,1016.57
2018-07-13T08:57:16.349Z,1016.56
2018-07-13T08:58:16.321Z,1016.63
2018-07-13T08:59:16.292Z,1016.56
2018-07-13T09:00:16.274Z,1016.57
2018-07-13T09:01:16.267Z,1016.58
2018-07-13T09:02:16.217Z,1016.59
2018-07-13T09:03:16.188Z,1016.57
2018-07-13T09:04:16.164Z,1016.62
2018-07-13T09:05:16.133Z,1016.46
2018-07-13T09:06:16.130Z,1016.59
2018-07-13T09:07:16.090Z,1016.48
2018-07-13T09:08:16.060Z,1016.51
2018-07-13T09:09:16.022Z,1016.46
2018-07-13T09:10:15.988Z,1016.47
2018-07-13T09:11:15.988Z,1016.51
2018-07-13T09:12:15.944Z,1016.47
2018-07-13T09:13:15.920Z,1016.46
2018-07-13T09:14:15.892Z,1016.52
2018-07-13T09:15:15.862Z,1016.56
2018-07-13T09:16:15.874Z,1016.58
2018-07-13T09:17:15.804Z,1016.64
2018-07-13T09:18:15.804Z,1016.63
2018-07-13T09:19:15.757Z,1016.62
2018-07-13T09:20:15.731Z,1016.64
2018-07-13T09:21:15.724Z,1016.64
2018-07-13T09:22:15.669Z,1016.59
2018-07-13T09:23:15.642Z,1016.65
2018-07-13T09:24:15.620Z,1016.73
2018-07-13T09:25:15.596Z,1016.75
2018-07-13T09:26:15.600Z,1016.64
2018-07-13T09:27:15.537Z,1016.52
2018-07-13T09:28:15.513Z,1016.47
2018-07-13T09:29:15.488Z,1016.55
2018-07-13T09:30:15.466Z,1016.43
2018-07-13T09:31:15.528Z,1016.47
2018-07-13T09:32:15.433Z,1016.45
2018-07-13T09:33:15.382Z,1016.44
2018-07-13T09:34:15.371Z,1016.49
2018-07-13T09:35:15.337Z,1016.47
2018-07-13T09:36:15.308Z,1016.50
2018-07-13T09:37:15.305Z,1016.42
2018-07-13T09:38:15.306Z,1016.43
2018-07-13T09:39:15.233Z,1016.38
2018-07-13T09:40:15.203Z,1016.36
2018-07-13T09:41:15.183Z,1016.37
2018-07-13T09:42:15.188Z,1016.40
2018-07-13T09:43:15.133Z,1016.35
2018-07-13T09:44:15.108Z,1016.37
2018-07-13T09:45:15.068Z,1016.37
2018-07-13T09:46:15.046Z,1016.30
2018-07-13T09:47:15.057Z,1016.27
2018-07-13T09:48:14.992Z,1016.20
2018-07-13T09:49:14.975Z,1016.29
2018-07-13T09:50:14.949Z,1016.26
2018-07-13T09:51:14.915Z,1016.29
2018-07-13T09:52:14.913Z,1016.33
2018-07-13T09:53:14.879Z,1016.36
2018-07-13T09:54:14.889Z,1016.38
2018-07-13T09:55:14.819Z,1016.35
2018-07-13T09:56:14.794Z,1016.18
2018-07-13T09:57:14.764Z,1016.17
2018-07-13T09:58:14.760Z,1016.19
2018-07-13T09:59:14.714Z,1016.13
2018-07-13T10:00:14.688Z,1016.22
2018-07-13T10:01:14.668Z,1016.22
2018-07-13T10:02:14.647Z,1016.24
2018-07-13T10:03:14.645Z,1016.20
2018-07-13T10:04:14.594Z,1016.20
2018-07-13T10:05:14.566Z,1016.25
2018-07-13T10:06:14.544Z,1016.18
2018-07-13T10:07:14.519Z,1016.17
2018-07-13T10:08:14.518Z,1016.24
2018-07-13T10:09:14.461Z,1016.24
2018-07-13T10:10:14.435Z,1016.22
2018-07-13T10:11:14.425Z,1016.23
2018-07-13T10:12:14.386Z,1016.26
2018-07-13T10:13:14.368Z,1016.27
2018-07-13T10:14:14.363Z,1016.24
2018-07-13T10:15:14.316Z,1016.24
2018-07-13T10:16:14.286Z,1016.23
2018-07-13T10:17:14.259Z,1016.26
2018-07-13T10:18:14.231Z,1016.25
2018-07-13T10:19:14.228Z,1016.26
2018-07-13T10:20:14.179Z,1016.29
2018-07-13T10:21:14.171Z,1016.24
2018-07-13T10:22:14.137Z,1016.27
2018-07-13T10:23:14.112Z,1016.20
2018-07-13T10:24:14.104Z,1016.22
2018-07-13T10:25:14.059Z,1016.21
2018-07-13T10:26:14.036Z,1016.24
2018-07-13T10:27:14.010Z,1016.25
2018-07-13T10:28:13.983Z,1016.18
2018-07-13T10:29:14.016Z,1016.16
2018-07-13T10:30:13.947Z,1016.19
2018-07-13T10:31:13.899Z,1016.19
2018-07-13T10:32:13.881Z,1016.20
2018-07-13T10:33:13.862Z,1016.19
2018-07-13T10:34:13.833Z,1016.17
2018-07-13T10:35:13.831Z,1016.17
2018-07-13T10:36:13.782Z,1016.11
2018-07-13T10:37:13.749Z,1016.13
2018-07-13T10:38:13.726Z,1016.14
2018-07-13T10:39:13.706Z,1016.09
2018-07-13T10:40:13.708Z,1016.07
2018-07-13T10:41:13.651Z,1016.05
2018-07-13T10:42:13.626Z,1016.09
2018-07-13T10:43:13.601Z,1016.08
2018-07-13T10:44:13.575Z,1016.08
2018-07-13T10:45:13.557Z,1016.13
2018-07-13T10:46:13.551Z,1016.09
2018-07-13T10:47:13.511Z,1016.00
2018-07-13T10:48:13.487Z,1016.11
2018-07-13T10:49:13.451Z,1016.11
2018-07-13T10:50:13.428Z,1016.08
2018-07-13T10:51:13.428Z,1016.11
2018-07-13T10:52:13.374Z,1016.12
2018-07-13T10:53:13.359Z,1016.13
2018-07-13T10:54:13.336Z,1016.09
2018-07-13T10:55:13.299Z,1016.11
2018-07-13T10:56:13.300Z,1016.07
2018-07-13T10:57:13.256Z,1016.06
2018-07-13T10:58:13.234Z,1016.08
2018-07-13T10:59:13.204Z,1016.01
2018-07-13T11:00:13.181Z,1016.09
2018-07-13T11:01:13.150Z,1015.93
2018-07-13T11:02:13.145Z,1016.03
2018-07-13T11:03:13.101Z,1015.90
2018-07-13T11:04:13.071Z,1015.90
2018-07-13T11:05:13.057Z,1015.91
2018-07-13T11:06:13.028Z,1015.90
2018-07-13T11:07:13.028Z,1015.94
2018-07-13T11:08:12.978Z,1015.90
2018-07-13T11:09:12.945Z,1015.92
2018-07-13T11:10:12.920Z,1016.02
2018-07-13T11:11:12.905Z,1015.96
2018-07-13T11:12:12.905Z,1015.93
2018-07-13T11:13:12.843Z,1015.93
2018-07-13T11:14:12.823Z,1015.93
2018-07-13T11:15:12.797Z,1015.85
2018-07-13T11:16:12.771Z,1015.97
2018-07-13T11:17:12.749Z,1015.89
2018-07-13T11:18:12.749Z,1015.95
2018-07-13T11:19:12.699Z,1016.05
2018-07-13T11:20:12.676Z,1016.11
2018-07-13T11:21:12.646Z,1016.06
2018-07-13T11:22:12.618Z,1016.07
2018-07-13T11:23:12.612Z,1016.02
2018-07-13T11:24:12.588Z,1016.05
2018-07-13T11:25:12.551Z,1016.02
2018-07-13T11:26:12.527Z,1015.94
2018-07-13T11:27:12.495Z,1015.88
2018-07-13T11:28:12.493Z,1015.81
2018-07-13T11:29:12.447Z,1015.89
2018-07-13T11:30:12.424Z,1015.93
2018-07-13T11:31:12.402Z,1015.93
2018-07-13T11:32:12.374Z,1015.91
2018-07-13T11:33:12.368Z,1015.79
2018-07-13T11:34:12.316Z,1015.79
2018-07-13T11:35:12.288Z,1015.78
2018-07-13T11:36:12.265Z,1015.76
2018-07-13T11:37:12.453Z,1015.71
2018-07-13T11:38:12.224Z,1015.64
2018-07-13T11:39:12.218Z,1015.62
2018-07-13T11:40:12.173Z,1015.63
2018-07-13T11:41:12.135Z,1015.66
2018-07-13T11:42:12.112Z,1015.58
2018-07-13T11:43:12.095Z,1015.55
2018-07-13T11:44:12.155Z,1015.58
2018-07-13T11:45:12.035Z,1015.57
2018-07-13T11:46:12.008Z,1015.64
2018-07-13T11:47:11.984Z,1015.63
2018-07-13T11:48:11.959Z,1015.67
2018-07-13T11:49:11.965Z,1015.65
2018-07-13T11:50:11.912Z,1015.58
2018-07-13T11:51:11.885Z,1015.55
2018-07-13T11:52:11.917Z,1015.54
2018-07-13T11:53:11.826Z,1015.53
2018-07-13T11:54:11.800Z,1015.51
2018-07-13T11:55:11.795Z,1015.54
2018-07-13T11:56:11.752Z,1015.49
2018-07-13T11:57:11.728Z,1015.45
2018-07-13T11:58:11.705Z,1015.46
2018-07-13T11:59:11.673Z,1015.40
2018-07-13T12:00:11.667Z,1015.36
2018-07-13T12:01:11.630Z,1015.35
2018-07-13T12:02:11.596Z,1015.34
2018-07-13T12:03:11.572Z,1015.35
2018-07-13T12:04:11.548Z,1015.36
2018-07-13T12:05:11.537Z,1015.36